sensor_id;sensor_type;location;lat;lon;timestamp;pressure;altitude;pressure_sealevel;temperature;humidity
21980;BME280;11154;48.558;9.234;2023-02-21T00:01:29;98042.97;;;10.45;65.72
21980;BME280;11154;48.558;9.234;2023-02-21T00:03:48;98030.41;;;10.37;63.60
21980;BME280;11154;48.558;9.234;2023-02-21T00:06:07;98048.38;;;10.26;59.43
21980;BME280;11154;48.558;9.234;2023-02-21T00:08:26;98042.81;;;10.19;56.95
21980;BME280;11154;48.558;9.234;2023-02-21T00:10:46;98038.91;;;10.14;57.21
21980;BME280;11154;48.558;9.234;2023-02-21T00:13:05;98044.81;;;10.08;57.07
21980;BME280;11154;48.558;9.234;2023-02-21T00:15:24;98028.75;;;10.00;55.25
21980;BME280;11154;48.558;9.234;2023-02-21T00:17:44;98028.59;;;10.02;57.67
21980;BME280;11154;48.558;9.234;2023-02-21T00:20:04;98032.41;;;9.99;59.18
21980;BME280;11154;48.558;9.234;2023-02-21T00:22:23;98036.72;;;10.00;59.93
21980;BME280;11154;48.558;9.234;2023-02-21T00:24:42;98041.75;;;10.03;59.84
21980;BME280;11154;48.558;9.234;2023-02-21T00:27:01;98032.81;;;10.04;59.05
21980;BME280;11154;48.558;9.234;2023-02-21T00:29:20;98034.19;;;10.08;59.22
21980;BME280;11154;48.558;9.234;2023-02-21T00:31:39;98036.16;;;10.06;58.97
21980;BME280;11154;48.558;9.234;2023-02-21T00:33:59;98027.50;;;10.04;59.10
21980;BME280;11154;48.558;9.234;2023-02-21T00:36:18;98033.78;;;10.03;59.49
21980;BME280;11154;48.558;9.234;2023-02-21T00:38:37;98027.78;;;10.01;59.19
21980;BME280;11154;48.558;9.234;2023-02-21T00:40:57;98028.03;;;10.07;59.67
21980;BME280;11154;48.558;9.234;2023-02-21T00:43:16;98025.25;;;10.09;58.63
21980;BME280;11154;48.558;9.234;2023-02-21T00:45:35;98034.19;;;10.08;58.44
21980;BME280;11154;48.558;9.234;2023-02-21T00:47:53;98031.38;;;10.09;58.74
21980;BME280;11154;48.558;9.234;2023-02-21T00:50:14;98024.38;;;10.08;58.19
21980;BME280;11154;48.558;9.234;2023-02-21T00:52:33;98022.44;;;10.10;58.56
21980;BME280;11154;48.558;9.234;2023-02-21T00:54:52;98021.59;;;10.10;59.09
21980;BME280;11154;48.558;9.234;2023-02-21T00:57:12;98019.22;;;10.07;58.75
21980;BME280;11154;48.558;9.234;2023-02-21T00:59:32;98017.53;;;10.06;59.00
21980;BME280;11154;48.558;9.234;2023-02-21T01:01:50;98010.72;;;10.04;59.08
21980;BME280;11154;48.558;9.234;2023-02-21T01:04:10;98014.34;;;10.03;59.45
21980;BME280;11154;48.558;9.234;2023-02-21T01:06:30;98020.78;;;10.00;59.16
21980;BME280;11154;48.558;9.234;2023-02-21T01:08:49;98014.78;;;9.98;58.78
21980;BME280;11154;48.558;9.234;2023-02-21T01:11:13;98017.97;;;9.92;58.16
21980;BME280;11154;48.558;9.234;2023-02-21T01:13:32;98013.94;;;9.88;58.42
21980;BME280;11154;48.558;9.234;2023-02-21T01:15:51;98011.88;;;9.82;59.02
21980;BME280;11154;48.558;9.234;2023-02-21T01:18:10;98016.78;;;9.77;59.11
21980;BME280;11154;48.558;9.234;2023-02-21T01:20:29;98013.44;;;9.75;58.86
21980;BME280;11154;48.558;9.234;2023-02-21T01:22:50;98015.25;;;9.75;59.01
21980;BME280;11154;48.558;9.234;2023-02-21T01:25:09;98015.56;;;9.62;59.07
21980;BME280;11154;48.558;9.234;2023-02-21T01:27:28;98024.69;;;9.50;59.20
21980;BME280;11154;48.558;9.234;2023-02-21T01:29:47;98009.03;;;9.47;60.62
21980;BME280;11154;48.558;9.234;2023-02-21T01:32:06;98020.09;;;9.43;60.92
21980;BME280;11154;48.558;9.234;2023-02-21T01:34:25;98013.09;;;9.42;60.71
21980;BME280;11154;48.558;9.234;2023-02-21T01:36:44;98013.38;;;9.39;60.42
21980;BME280;11154;48.558;9.234;2023-02-21T01:39:05;98013.25;;;9.40;60.06
21980;BME280;11154;48.558;9.234;2023-02-21T01:41:24;98012.25;;;9.41;60.31
21980;BME280;11154;48.558;9.234;2023-02-21T01:43:57;98011.13;;;9.44;59.69
21980;BME280;11154;48.558;9.234;2023-02-21T01:46:18;98012.53;;;9.48;60.02
21980;BME280;11154;48.558;9.234;2023-02-21T01:48:38;98013.25;;;9.50;59.46
21980;BME280;11154;48.558;9.234;2023-02-21T01:50:57;98012.38;;;9.49;58.88
21980;BME280;11154;48.558;9.234;2023-02-21T01:53:18;98003.44;;;9.50;58.37
21980;BME280;11154;48.558;9.234;2023-02-21T01:55:40;98008.91;;;9.49;58.44
21980;BME280;11154;48.558;9.234;2023-02-21T01:58:00;98015.34;;;9.46;59.19
21980;BME280;11154;48.558;9.234;2023-02-21T02:00:20;97961.22;;;9.02;59.94
21980;BME280;11154;48.558;9.234;2023-02-21T02:02:45;97965.19;;;7.02;70.33
21980;BME280;11154;48.558;9.234;2023-02-21T02:05:08;97962.66;;;6.48;72.96
21980;BME280;11154;48.558;9.234;2023-02-21T02:07:28;97958.41;;;6.26;74.76
21980;BME280;11154;48.558;9.234;2023-02-21T02:09:48;97962.38;;;6.20;76.14
21980;BME280;11154;48.558;9.234;2023-02-21T02:12:30;97956.03;;;6.12;77.30
21980;BME280;11154;48.558;9.234;2023-02-21T02:17:04;97960.31;;;5.81;79.96
21980;BME280;11154;48.558;9.234;2023-02-21T02:19:38;97963.38;;;5.75;80.79
21980;BME280;11154;48.558;9.234;2023-02-21T02:24:42;97964.50;;;5.51;81.34
21980;BME280;11154;48.558;9.234;2023-02-21T02:27:16;97958.97;;;5.54;82.48
21980;BME280;11154;48.558;9.234;2023-02-21T02:29:40;97953.59;;;5.56;83.36
21980;BME280;11154;48.558;9.234;2023-02-21T02:31:59;97947.94;;;5.49;83.50
21980;BME280;11154;48.558;9.234;2023-02-21T02:34:30;97955.84;;;5.38;83.66
21980;BME280;11154;48.558;9.234;2023-02-21T02:36:39;97946.97;;;5.28;83.36
21980;BME280;11154;48.558;9.234;2023-02-21T02:38:49;97950.19;;;5.32;84.24
21980;BME280;11154;48.558;9.234;2023-02-21T02:40:59;97938.34;;;5.37;84.08
21980;BME280;11154;48.558;9.234;2023-02-21T02:43:09;97950.59;;;5.38;84.07
21980;BME280;11154;48.558;9.234;2023-02-21T02:45:18;97942.69;;;5.27;84.08
21980;BME280;11154;48.558;9.234;2023-02-21T02:47:26;97941.00;;;5.26;84.59
21980;BME280;11154;48.558;9.234;2023-02-21T02:49:32;97944.31;;;5.17;84.63
21980;BME280;11154;48.558;9.234;2023-02-21T02:51:37;97944.31;;;5.17;85.53
21980;BME280;11154;48.558;9.234;2023-02-21T02:53:39;97940.75;;;5.18;85.20
21980;BME280;11154;48.558;9.234;2023-02-21T02:55:47;97943.59;;;5.15;85.58
21980;BME280;11154;48.558;9.234;2023-02-21T02:57:51;97940.72;;;5.07;85.14
21980;BME280;11154;48.558;9.234;2023-02-21T02:59:53;97940.22;;;5.02;86.10
21980;BME280;11154;48.558;9.234;2023-02-21T03:02:10;97928.84;;;5.13;86.89
21980;BME280;11154;48.558;9.234;2023-02-21T03:04:26;97937.16;;;5.08;86.30
21980;BME280;11154;48.558;9.234;2023-02-21T03:06:40;97931.16;;;5.17;86.16
21980;BME280;11154;48.558;9.234;2023-02-21T03:08:51;97922.41;;;5.17;86.45
21980;BME280;11154;48.558;9.234;2023-02-21T03:11:01;97924.19;;;5.16;86.27
21980;BME280;11154;48.558;9.234;2023-02-21T03:13:09;97923.50;;;5.14;85.61
21980;BME280;11154;48.558;9.234;2023-02-21T03:15:17;97930.66;;;5.12;86.60
21980;BME280;11154;48.558;9.234;2023-02-21T03:17:22;97927.44;;;5.09;85.66
21980;BME280;11154;48.558;9.234;2023-02-21T03:19:30;97931.75;;;5.21;86.07
21980;BME280;11154;48.558;9.234;2023-02-21T03:21:38;97948.38;;;5.21;85.27
21980;BME280;11154;48.558;9.234;2023-02-21T03:23:42;97939.91;;;5.18;86.01
21980;BME280;11154;48.558;9.234;2023-02-21T03:25:47;97930.06;;;5.20;85.77
21980;BME280;11154;48.558;9.234;2023-02-21T03:27:53;97929.25;;;5.19;85.63
21980;BME280;11154;48.558;9.234;2023-02-21T03:29:58;97928.50;;;5.17;85.89
21980;BME280;11154;48.558;9.234;2023-02-21T03:32:05;97920.25;;;5.11;85.85
21980;BME280;11154;48.558;9.234;2023-02-21T03:34:13;97936.41;;;5.06;85.80
21980;BME280;11154;48.558;9.234;2023-02-21T03:36:15;97931.97;;;5.07;85.42
21980;BME280;11154;48.558;9.234;2023-02-21T03:38:18;97933.78;;;5.06;85.00
21980;BME280;11154;48.558;9.234;2023-02-21T03:40:21;97927.31;;;4.99;85.37
21980;BME280;11154;48.558;9.234;2023-02-21T03:42:23;97928.97;;;5.00;83.82
21980;BME280;11154;48.558;9.234;2023-02-21T03:44:25;97931.38;;;5.03;84.82
21980;BME280;11154;48.558;9.234;2023-02-21T03:46:27;97935.22;;;4.99;84.80
21980;BME280;11154;48.558;9.234;2023-02-21T03:48:28;97936.03;;;5.00;83.47
21980;BME280;11154;48.558;9.234;2023-02-21T03:50:30;97926.22;;;5.02;82.74
21980;BME280;11154;48.558;9.234;2023-02-21T03:52:32;97930.41;;;4.94;82.49
21980;BME280;11154;48.558;9.234;2023-02-21T03:54:35;97930.88;;;4.98;83.30
21980;BME280;11154;48.558;9.234;2023-02-21T03:56:37;97933.66;;;4.97;82.98
21980;BME280;11154;48.558;9.234;2023-02-21T03:58:39;97936.41;;;4.96;82.15
21980;BME280;11154;48.558;9.234;2023-02-21T04:00:40;97963.63;;;5.51;82.55
21980;BME280;11154;48.558;9.234;2023-02-21T04:02:42;97966.06;;;6.40;77.25
21980;BME280;11154;48.558;9.234;2023-02-21T04:04:44;97962.72;;;6.89;74.24
21980;BME280;11154;48.558;9.234;2023-02-21T04:06:47;97961.88;;;7.29;73.09
21980;BME280;11154;48.558;9.234;2023-02-21T04:08:49;97956.72;;;7.58;73.81
21980;BME280;11154;48.558;9.234;2023-02-21T04:10:52;97949.19;;;7.83;71.57
21980;BME280;11154;48.558;9.234;2023-02-21T04:12:54;97945.06;;;7.99;67.95
21980;BME280;11154;48.558;9.234;2023-02-21T04:14:56;97947.56;;;8.10;65.57
21980;BME280;11154;48.558;9.234;2023-02-21T04:16:57;97949.72;;;8.26;64.08
21980;BME280;11154;48.558;9.234;2023-02-21T04:18:59;97954.78;;;8.38;62.88
21980;BME280;11154;48.558;9.234;2023-02-21T04:21:01;97953.69;;;8.50;62.13
21980;BME280;11154;48.558;9.234;2023-02-21T04:23:03;97958.13;;;8.59;61.33
21980;BME280;11154;48.558;9.234;2023-02-21T04:25:05;97957.31;;;8.68;61.05
21980;BME280;11154;48.558;9.234;2023-02-21T04:27:08;97958.44;;;8.75;60.55
21980;BME280;11154;48.558;9.234;2023-02-21T04:29:10;97949.22;;;8.79;60.38
21980;BME280;11154;48.558;9.234;2023-02-21T04:31:13;97956.34;;;8.88;60.11
21980;BME280;11154;48.558;9.234;2023-02-21T04:33:15;97954.91;;;8.93;59.75
21980;BME280;11154;48.558;9.234;2023-02-21T04:35:17;97956.19;;;8.99;59.34
21980;BME280;11154;48.558;9.234;2023-02-21T04:37:19;97951.72;;;8.99;58.45
21980;BME280;11154;48.558;9.234;2023-02-21T04:39:20;97953.69;;;8.88;59.19
21980;BME280;11154;48.558;9.234;2023-02-21T04:41:22;97954.91;;;8.84;59.87
21980;BME280;11154;48.558;9.234;2023-02-21T04:43:25;97954.50;;;8.79;59.76
21980;BME280;11154;48.558;9.234;2023-02-21T04:45:27;97957.72;;;8.73;60.20
21980;BME280;11154;48.558;9.234;2023-02-21T04:47:29;97957.31;;;8.68;60.02
21980;BME280;11154;48.558;9.234;2023-02-21T04:49:30;97946.41;;;8.61;59.08
21980;BME280;11154;48.558;9.234;2023-02-21T04:51:32;97954.25;;;8.54;59.91
21980;BME280;11154;48.558;9.234;2023-02-21T04:53:34;97958.00;;;8.51;60.77
21980;BME280;11154;48.558;9.234;2023-02-21T04:55:35;97953.53;;;8.52;61.20
21980;BME280;11154;48.558;9.234;2023-02-21T04:57:37;97946.56;;;8.51;61.08
21980;BME280;11154;48.558;9.234;2023-02-21T04:59:40;97946.41;;;8.52;61.42
21980;BME280;11154;48.558;9.234;2023-02-21T05:01:41;97945.44;;;8.53;60.60
21980;BME280;11154;48.558;9.234;2023-02-21T05:03:43;97941.41;;;8.49;61.44
21980;BME280;11154;48.558;9.234;2023-02-21T05:05:44;97943.06;;;8.50;61.52
21980;BME280;11154;48.558;9.234;2023-02-21T05:07:46;97942.66;;;8.55;61.79
21980;BME280;11154;48.558;9.234;2023-02-21T05:09:48;97944.47;;;8.54;61.52
21980;BME280;11154;48.558;9.234;2023-02-21T05:11:49;97934.41;;;8.58;61.62
21980;BME280;11154;48.558;9.234;2023-02-21T05:13:52;97933.31;;;8.60;61.25
21980;BME280;11154;48.558;9.234;2023-02-21T05:15:55;97942.38;;;8.67;60.95
21980;BME280;11154;48.558;9.234;2023-02-21T05:17:56;97945.31;;;8.73;60.51
21980;BME280;11154;48.558;9.234;2023-02-21T05:19:58;97941.41;;;8.77;60.16
21980;BME280;11154;48.558;9.234;2023-02-21T05:22:01;97942.66;;;8.83;59.92
21980;BME280;11154;48.558;9.234;2023-02-21T05:24:06;97945.31;;;8.83;59.94
21980;BME280;11154;48.558;9.234;2023-02-21T05:26:09;97943.66;;;8.82;59.48
21980;BME280;11154;48.558;9.234;2023-02-21T05:28:11;97947.25;;;8.81;60.21
21980;BME280;11154;48.558;9.234;2023-02-21T05:30:14;97952.56;;;8.81;59.05
21980;BME280;11154;48.558;9.234;2023-02-21T05:32:20;97950.88;;;8.80;59.22
21980;BME280;11154;48.558;9.234;2023-02-21T05:34:22;97952.28;;;8.74;57.17
21980;BME280;11154;48.558;9.234;2023-02-21T05:36:24;97944.75;;;8.70;57.16
21980;BME280;11154;48.558;9.234;2023-02-21T05:38:26;97945.88;;;8.58;56.99
21980;BME280;11154;48.558;9.234;2023-02-21T05:40:28;97951.28;;;8.47;58.21
21980;BME280;11154;48.558;9.234;2023-02-21T05:42:29;97948.63;;;8.47;58.97
21980;BME280;11154;48.558;9.234;2023-02-21T05:44:31;97953.53;;;8.42;59.21
21980;BME280;11154;48.558;9.234;2023-02-21T05:46:33;97954.22;;;8.44;59.18
21980;BME280;11154;48.558;9.234;2023-02-21T05:48:36;97951.13;;;8.39;59.19
21980;BME280;11154;48.558;9.234;2023-02-21T05:50:38;97957.13;;;8.41;62.62
21980;BME280;11154;48.558;9.234;2023-02-21T05:52:39;97957.84;;;8.43;63.02
21980;BME280;11154;48.558;9.234;2023-02-21T05:54:42;97956.72;;;8.36;60.55
21980;BME280;11154;48.558;9.234;2023-02-21T05:56:45;97953.91;;;8.28;60.59
21980;BME280;11154;48.558;9.234;2023-02-21T05:58:47;97946.09;;;8.17;59.29
21980;BME280;11154;48.558;9.234;2023-02-21T06:00:50;97949.00;;;8.14;59.04
21980;BME280;11154;48.558;9.234;2023-02-21T06:02:51;97947.84;;;8.07;60.45
21980;BME280;11154;48.558;9.234;2023-02-21T06:04:54;97956.88;;;8.05;60.33
21980;BME280;11154;48.558;9.234;2023-02-21T06:06:56;97953.41;;;8.04;60.38
21980;BME280;11154;48.558;9.234;2023-02-21T06:08:58;97960.53;;;8.04;60.31
21980;BME280;11154;48.558;9.234;2023-02-21T06:10:59;97955.91;;;8.06;60.46
21980;BME280;11154;48.558;9.234;2023-02-21T06:13:01;97953.13;;;8.07;60.99
21980;BME280;11154;48.558;9.234;2023-02-21T06:15:03;97948.25;;;8.03;60.05
21980;BME280;11154;48.558;9.234;2023-02-21T06:17:06;97942.81;;;8.04;60.50
21980;BME280;11154;48.558;9.234;2023-02-21T06:19:08;97949.81;;;8.05;60.78
21980;BME280;11154;48.558;9.234;2023-02-21T06:21:13;97950.53;;;8.17;59.85
21980;BME280;11154;48.558;9.234;2023-02-21T06:23:14;97959.34;;;8.17;59.92
21980;BME280;11154;48.558;9.234;2023-02-21T06:25:16;97949.47;;;8.19;59.24
21980;BME280;11154;48.558;9.234;2023-02-21T06:27:18;97960.16;;;8.18;59.21
21980;BME280;11154;48.558;9.234;2023-02-21T06:29:19;97953.91;;;8.19;59.68
21980;BME280;11154;48.558;9.234;2023-02-21T06:31:21;97953.75;;;8.20;58.92
21980;BME280;11154;48.558;9.234;2023-02-21T06:33:23;97958.53;;;8.26;59.67
21980;BME280;11154;48.558;9.234;2023-02-21T06:35:25;97961.72;;;8.30;59.25
21980;BME280;11154;48.558;9.234;2023-02-21T06:37:28;97955.34;;;8.32;60.79
21980;BME280;11154;48.558;9.234;2023-02-21T06:39:29;97948.91;;;8.25;59.77
21980;BME280;11154;48.558;9.234;2023-02-21T06:41:31;97948.63;;;8.47;69.99
21980;BME280;11154;48.558;9.234;2023-02-21T06:43:33;97949.75;;;8.45;67.45
21980;BME280;11154;48.558;9.234;2023-02-21T06:45:35;97957.69;;;8.35;63.04
21980;BME280;11154;48.558;9.234;2023-02-21T06:47:37;97957.13;;;8.32;61.53
21980;BME280;11154;48.558;9.234;2023-02-21T06:49:38;97950.44;;;8.18;60.46
21980;BME280;11154;48.558;9.234;2023-02-21T06:51:41;97951.91;;;8.11;60.12
21980;BME280;11154;48.558;9.234;2023-02-21T06:53:48;97963.72;;;8.07;60.45
21980;BME280;11154;48.558;9.234;2023-02-21T06:55:50;97952.44;;;8.05;60.01
21980;BME280;11154;48.558;9.234;2023-02-21T06:57:51;97942.09;;;8.02;60.19
21980;BME280;11154;48.558;9.234;2023-02-21T06:59:53;97948.38;;;8.01;60.57
21980;BME280;11154;48.558;9.234;2023-02-21T07:01:55;97949.94;;;8.04;60.99
21980;BME280;11154;48.558;9.234;2023-02-21T07:03:57;97952.72;;;8.02;60.34
21980;BME280;11154;48.558;9.234;2023-02-21T07:05:59;97941.84;;;8.05;59.99
21980;BME280;11154;48.558;9.234;2023-02-21T07:08:00;97944.66;;;8.04;60.34
21980;BME280;11154;48.558;9.234;2023-02-21T07:10:04;97938.81;;;8.10;61.70
21980;BME280;11154;48.558;9.234;2023-02-21T07:12:06;97948.59;;;8.19;62.28
21980;BME280;11154;48.558;9.234;2023-02-21T07:14:09;97953.50;;;8.33;61.89
21980;BME280;11154;48.558;9.234;2023-02-21T07:16:11;97953.38;;;8.44;60.94
21980;BME280;11154;48.558;9.234;2023-02-21T07:18:13;97948.50;;;8.49;60.62
21980;BME280;11154;48.558;9.234;2023-02-21T07:20:15;97950.31;;;8.48;59.54
21980;BME280;11154;48.558;9.234;2023-02-21T07:22:17;97946.97;;;8.46;59.69
21980;BME280;11154;48.558;9.234;2023-02-21T07:24:25;97948.34;;;8.31;59.75
21980;BME280;11154;48.558;9.234;2023-02-21T07:26:28;97954.63;;;8.30;60.89
21980;BME280;11154;48.558;9.234;2023-02-21T07:28:29;97949.72;;;8.26;60.90
21980;BME280;11154;48.558;9.234;2023-02-21T07:30:31;97947.22;;;8.24;61.18
21980;BME280;11154;48.558;9.234;2023-02-21T07:32:33;97953.19;;;8.17;60.70
21980;BME280;11154;48.558;9.234;2023-02-21T07:34:35;97952.34;;;8.16;61.59
21980;BME280;11154;48.558;9.234;2023-02-21T07:36:37;97949.97;;;8.13;61.15
21980;BME280;11154;48.558;9.234;2023-02-21T07:38:38;97951.91;;;8.11;61.55
21980;BME280;11154;48.558;9.234;2023-02-21T07:40:40;97951.91;;;8.11;61.46
21980;BME280;11154;48.558;9.234;2023-02-21T07:42:43;97953.69;;;8.11;62.22
21980;BME280;11154;48.558;9.234;2023-02-21T07:44:47;97956.34;;;8.11;62.66
21980;BME280;11154;48.558;9.234;2023-02-21T07:46:48;97955.53;;;8.10;63.30
21980;BME280;11154;48.558;9.234;2023-02-21T07:48:50;97950.78;;;8.14;63.51
21980;BME280;11154;48.558;9.234;2023-02-21T07:50:51;97955.97;;;8.15;62.90
21980;BME280;11154;48.558;9.234;2023-02-21T07:52:53;97952.09;;;8.19;63.36
21980;BME280;11154;48.558;9.234;2023-02-21T07:54:56;97952.38;;;8.26;62.89
21980;BME280;11154;48.558;9.234;2023-02-21T07:56:57;97953.66;;;8.31;63.38
21980;BME280;11154;48.558;9.234;2023-02-21T07:59:00;97954.50;;;8.41;63.79
21980;BME280;11154;48.558;9.234;2023-02-21T08:01:02;97957.31;;;8.59;63.15
21980;BME280;11154;48.558;9.234;2023-02-21T08:03:04;97956.50;;;8.67;62.25
21980;BME280;11154;48.558;9.234;2023-02-21T08:05:06;97960.13;;;8.76;62.64
21980;BME280;11154;48.558;9.234;2023-02-21T08:07:08;97946.28;;;8.82;62.51
21980;BME280;11154;48.558;9.234;2023-02-21T08:09:10;97956.91;;;8.91;63.25
21980;BME280;11154;48.558;9.234;2023-02-21T08:11:11;97943.06;;;8.97;62.90
21980;BME280;11154;48.558;9.234;2023-02-21T08:13:13;97952.25;;;9.03;64.18
21980;BME280;11154;48.558;9.234;2023-02-21T08:15:17;97950.72;;;9.10;63.67
21980;BME280;11154;48.558;9.234;2023-02-21T08:17:18;97947.22;;;9.19;63.59
21980;BME280;11154;48.558;9.234;2023-02-21T08:19:20;97946.22;;;9.29;63.49
21980;BME280;11154;48.558;9.234;2023-02-21T08:21:22;97943.56;;;9.38;63.03
21980;BME280;11154;48.558;9.234;2023-02-21T08:23:23;97946.31;;;9.46;63.61
21980;BME280;11154;48.558;9.234;2023-02-21T08:25:25;97944.31;;;9.58;63.10
21980;BME280;11154;48.558;9.234;2023-02-21T08:27:27;97943.44;;;9.67;63.78
21980;BME280;11154;48.558;9.234;2023-02-21T08:29:28;97947.06;;;9.75;63.66
21980;BME280;11154;48.558;9.234;2023-02-21T08:31:34;97948.84;;;9.84;64.44
21980;BME280;11154;48.558;9.234;2023-02-21T08:33:36;97949.78;;;9.93;64.68
21980;BME280;11154;48.558;9.234;2023-02-21T08:35:38;97936.47;;;10.02;64.12
21980;BME280;11154;48.558;9.234;2023-02-21T08:37:43;97939.91;;;10.12;63.36
21980;BME280;11154;48.558;9.234;2023-02-21T08:39:45;97946.31;;;10.19;62.45
21980;BME280;11154;48.558;9.234;2023-02-21T08:41:47;97946.41;;;10.27;61.51
21980;BME280;11154;48.558;9.234;2023-02-21T08:43:49;97946.50;;;10.35;60.69
21980;BME280;11154;48.558;9.234;2023-02-21T08:45:51;97945.59;;;10.44;60.22
21980;BME280;11154;48.558;9.234;2023-02-21T08:47:54;97943.56;;;10.55;60.12
21980;BME280;11154;48.558;9.234;2023-02-21T08:49:56;97942.34;;;10.67;59.68
21980;BME280;11154;48.558;9.234;2023-02-21T08:51:58;97949.25;;;10.77;60.52
21980;BME280;11154;48.558;9.234;2023-02-21T08:54:00;97949.19;;;10.87;59.81
21980;BME280;11154;48.558;9.234;2023-02-21T08:56:01;97953.06;;;10.92;58.86
21980;BME280;11154;48.558;9.234;2023-02-21T08:58:03;97946.44;;;10.96;58.00
21980;BME280;11154;48.558;9.234;2023-02-21T09:00:06;97956.16;;;11.05;58.29
21980;BME280;11154;48.558;9.234;2023-02-21T09:02:14;97947.56;;;11.11;57.63
21980;BME280;11154;48.558;9.234;2023-02-21T09:04:17;97945.63;;;11.21;57.65
21980;BME280;11154;48.558;9.234;2023-02-21T09:06:19;97945.19;;;11.26;57.61
21980;BME280;11154;48.558;9.234;2023-02-21T09:08:21;97948.53;;;11.28;56.97
21980;BME280;11154;48.558;9.234;2023-02-21T09:10:26;97945.78;;;11.37;57.66
21980;BME280;11154;48.558;9.234;2023-02-21T09:12:29;97948.63;;;11.44;57.94
21980;BME280;11154;48.558;9.234;2023-02-21T09:14:30;97942.41;;;11.52;57.54
21980;BME280;11154;48.558;9.234;2023-02-21T09:16:32;97943.13;;;11.62;58.13
21980;BME280;11154;48.558;9.234;2023-02-21T09:18:33;97940.00;;;11.67;58.54
21980;BME280;11154;48.558;9.234;2023-02-21T09:20:36;97941.84;;;11.74;57.75
21980;BME280;11154;48.558;9.234;2023-02-21T09:22:41;97939.25;;;11.82;57.06
21980;BME280;11154;48.558;9.234;2023-02-21T09:24:44;97938.59;;;11.88;57.15
21980;BME280;11154;48.558;9.234;2023-02-21T09:26:45;97932.63;;;11.94;57.28
21980;BME280;11154;48.558;9.234;2023-02-21T09:28:49;97930.31;;;11.99;56.24
21980;BME280;11154;48.558;9.234;2023-02-21T09:30:50;97936.03;;;12.04;56.17
21980;BME280;11154;48.558;9.234;2023-02-21T09:32:52;97936.38;;;12.09;56.45
21980;BME280;11154;48.558;9.234;2023-02-21T09:34:54;97924.59;;;12.20;56.62
21980;BME280;11154;48.558;9.234;2023-02-21T09:36:57;97924.94;;;12.24;56.23
21980;BME280;11154;48.558;9.234;2023-02-21T09:39:01;97922.66;;;12.37;56.07
21980;BME280;11154;48.558;9.234;2023-02-21T09:41:06;97924.66;;;12.43;56.15
21980;BME280;11154;48.558;9.234;2023-02-21T09:43:13;97924.66;;;12.43;56.33
21980;BME280;11154;48.558;9.234;2023-02-21T09:45:16;97925.47;;;12.44;56.16
21980;BME280;11154;48.558;9.234;2023-02-21T09:47:26;97920.66;;;12.47;57.59
21980;BME280;11154;48.558;9.234;2023-02-21T09:49:32;97922.03;;;12.51;58.23
21980;BME280;11154;48.558;9.234;2023-02-21T09:51:34;97913.66;;;12.54;56.84
21980;BME280;11154;48.558;9.234;2023-02-21T09:53:43;97918.53;;;12.75;55.68
21980;BME280;11154;48.558;9.234;2023-02-21T09:55:47;97912.75;;;12.87;55.69
21980;BME280;11154;48.558;9.234;2023-02-21T09:57:50;97918.41;;;12.92;56.25
21980;BME280;11154;48.558;9.234;2023-02-21T09:59:52;97919.78;;;12.96;55.98
21980;BME280;11154;48.558;9.234;2023-02-21T10:02:03;97918.09;;;13.03;56.33
21980;BME280;11154;48.558;9.234;2023-02-21T10:04:20;97914.09;;;13.07;54.61
21980;BME280;11154;48.558;9.234;2023-02-21T10:06:34;97910.75;;;13.13;54.67
21980;BME280;11154;48.558;9.234;2023-02-21T10:08:46;97913.41;;;13.21;54.56
21980;BME280;11154;48.558;9.234;2023-02-21T10:10:52;97903.69;;;13.44;54.77
21980;BME280;11154;48.558;9.234;2023-02-21T10:13:04;97907.69;;;13.48;53.33
21980;BME280;11154;48.558;9.234;2023-02-21T10:15:33;97909.72;;;13.54;52.74
21980;BME280;11154;48.558;9.234;2023-02-21T10:17:42;97907.84;;;13.54;52.80
21980;BME280;11154;48.558;9.234;2023-02-21T10:19:50;97907.50;;;13.57;51.70
21980;BME280;11154;48.558;9.234;2023-02-21T10:21:54;97905.50;;;13.67;51.36
21980;BME280;11154;48.558;9.234;2023-02-21T10:24:01;97904.63;;;13.74;51.51
21980;BME280;11154;48.558;9.234;2023-02-21T10:26:09;97895.91;;;13.80;51.23
21980;BME280;11154;48.558;9.234;2023-02-21T10:28:16;97895.91;;;13.88;51.01
21980;BME280;11154;48.558;9.234;2023-02-21T10:30:25;97899.22;;;13.98;50.66
21980;BME280;11154;48.558;9.234;2023-02-21T10:32:29;97894.81;;;14.13;49.80
21980;BME280;11154;48.558;9.234;2023-02-21T10:34:32;97899.66;;;14.48;49.93
21980;BME280;11154;48.558;9.234;2023-02-21T10:36:34;97901.34;;;14.71;49.69
21980;BME280;11154;48.558;9.234;2023-02-21T10:38:38;97897.34;;;14.90;49.61
21980;BME280;11154;48.558;9.234;2023-02-21T10:40:46;97886.94;;;14.72;48.37
21980;BME280;11154;48.558;9.234;2023-02-21T10:42:50;97890.41;;;14.58;48.11
21980;BME280;11154;48.558;9.234;2023-02-21T10:44:54;97891.22;;;14.59;49.37
21980;BME280;11154;48.558;9.234;2023-02-21T10:47:01;97892.38;;;14.64;50.25
21980;BME280;11154;48.558;9.234;2023-02-21T10:49:19;97885.44;;;14.70;50.83
21980;BME280;11154;48.558;9.234;2023-02-21T10:51:30;97876.22;;;14.72;51.07
21980;BME280;11154;48.558;9.234;2023-02-21T10:53:33;97878.28;;;14.70;50.32
21980;BME280;11154;48.558;9.234;2023-02-21T10:55:34;97872.25;;;14.68;50.36
21980;BME280;11154;48.558;9.234;2023-02-21T10:57:42;97880.38;;;14.75;50.27
21980;BME280;11154;48.558;9.234;2023-02-21T10:59:47;97876.00;;;14.82;50.12
21980;BME280;11154;48.558;9.234;2023-02-21T11:01:49;97873.25;;;14.90;50.02
21980;BME280;11154;48.558;9.234;2023-02-21T11:03:52;97866.38;;;14.95;51.14
21980;BME280;11154;48.558;9.234;2023-02-21T11:05:56;97862.78;;;15.03;50.56
21980;BME280;11154;48.558;9.234;2023-02-21T11:08:01;97860.28;;;15.01;48.71
21980;BME280;11154;48.558;9.234;2023-02-21T11:10:27;97854.94;;;15.01;47.65
21980;BME280;11154;48.558;9.234;2023-02-21T11:12:29;97854.66;;;15.11;48.08
21980;BME280;11154;48.558;9.234;2023-02-21T11:14:33;97855.22;;;15.20;47.92
21980;BME280;11154;48.558;9.234;2023-02-21T11:16:35;97853.72;;;15.26;46.63
21980;BME280;11154;48.558;9.234;2023-02-21T11:18:37;97840.88;;;15.36;45.81
21980;BME280;11154;48.558;9.234;2023-02-21T11:20:39;97844.13;;;15.46;45.06
21980;BME280;11154;48.558;9.234;2023-02-21T11:22:42;97840.91;;;15.50;43.68
21980;BME280;11154;48.558;9.234;2023-02-21T11:24:59;97832.88;;;15.50;42.35